KMCE

Merced Regional / Macready Field Airport

Merced, California, USA
METAR KMCE 181253Z AUTO 00000KT 1/4SM FG VV004 04/04 A3028 RMK AO2 SLP255 T00440044
Observed Flight Rules
Dec-18 @ 12:53 UTC (55 minutes ago) Instrument Flight Rules
Visibility Clouds Conditions
1/4 miles
  • Vertical visibility at 400' AGL
  • Fog
Temperatures Readings
Current 4°C / 39°F
Dewpoint 4°C / 39°F
Humidity 100%
Altimeter 30.28" Hg
Pressure 1025.5 hPa
Elevation 47
METAR KMCE 181253Z AUTO 00000KT 1/4SM FG VV004 04/04 A3028 RMK AO2 SLP255 T00440044
Observed Flight Rules
Dec-18 @ 12:53 UTC
(55 minutes ago)
LIFR
Clouds
  • Vertical visibility at 400' AGL
Conditions
  • Fog
Temperature Dewpoint
4°C / 39°F 4°C / 39°F
Humidity Altimeter Pressure
100% 30.28" Hg 1025.5 hPa